A- A+ FrançaisEnglishEspañol中国

le plus proche LFBT Tarbes-Lourdes-PyrénéesLFBG Cognac-Chateau-Bernard LFBD Bordeaux-MerignacLFXA Amberieu-En-Bugey

manche à air

La météo aéronautique pour les pilotes, la préparation du vol avec les METAR (METeorological Aerodrome Report, message d'observation des conditions météorologiques pour l'aviation) et Les TAF (Terminal Aerodrome Forecast : message de prévision à court terme des conditions météorologiques pour l'aviation). Et les autres ressources comme les VAC (Visual Approch Chart) et les NOTAM (Notice To Airman) pour préprer les vols.

Aéroport Abuja Intl (Nigéria) / OACI DNAA/ IATA ABV

L'altitude de l'aéroport Abuja Intl est de 342 m=1122 ft. Il est situé à proximité de Abuja (Nigéria). La météo générale à 5 jours est disponible pour Suleja situé à 20.9 km.

METAR de l'aéroport Abuja Intl - DNAA

DNAA 230500Z 05003KT CAVOK 18/09 Q1013 NOSIG

Décodage du METAR de l'aéroport Abuja Intl (NG)

METAR émis par DNAA le lundi 23 décembre 2019 à 05:00 heure TU. Attention ce METAR est obsolète car il a été émis il y a 21 heure et 36 minutes.

La visibilité est de supérieure à 10 km=supérieure à 6.2 sm.

La température est de 18°C=64 °F et le point rosée est de 9°C=48 °F . Ce qui correspond à 56% d'humidité relative.

Le QNH est de 1013 hPa=29.91 inHg

Vent de 3 kt=6 km/h, orienté à 50°.

Pas de nuages.

Aucun changement significatif dans les deux heures à venir

TAF de l'aéroport Abuja Intl - DNAA

DNAA 222300Z 2300/2406 07005KT CAVOK TEMPO 2310/2316 22010KT

DNAA 222300Z 2300/2406 07005KT visibilité supérieure à 10km, aucun nuage à une hauteur inférieure à 5000 ft ou sous l'altitude minimale de secteur et aucun cumulonimbus ou cumulus bourgeonnant, quelle que soit leur altitude temporairement 2310/2316 22010KT

Aéroport à proximité de Abuja Intl

Météo générale à 5 jours à Suleja (20.9 km)DNMN Aéroport Minna (113 km)DNBI Aéroport Bida (137 km)DNKA Aéroport Kaduna (188 km)DNJO Aéroport Jos (190 km)DNMK Aéroport Makurdi (208 km)DNZA Aéroport Zaria (241 km)

Vue aérienne de l'aéroport Abuja Intl

NOTAM de l'aéroport Abuja Intl

Les NOTAM sont fournis sans aucune garantie de leur actualité. Le pilote est le seul responsable de la vérification de sa validité avant de l'utiliser opérationnellement pour préparer un vol ou l'utiliser lors de sa navigation.

Pas de NOTAM

Sources des données